Latest Weather Observations for Low Head

IDT60801

Issued at 7:11 pm EST Monday 1 June 2020 (issued every 10 minutes, with the page automatically refreshed every 10 minutes)

About weather observations | Map of weather stations | Latest weather observations for TAS | Other Formats
Station Details ID: 091293 Name: LOW HEAD Lat: -41.05 Lon: 146.79 Height: 3.0 m
Data from the previous 72 hours. | See also: Recent months at Low Head
Date/Time
EST
Temp
°C
App
Temp
°C
Dew
Point
°C
Rel
Hum
%
Delta-T
°C
Wind Press
QNH
hPa
Press
MSL
hPa
Rain since
9am
mm
Dir  Spd
km/h
Gust
km/h
Spd
kts
Gust
kts
01/07:00pm 12.5 11.2 12.5 100 0.0 WNW 11 13 6 7 1006.8 1006.8 0.0
01/06:30pm 12.2 11.6 12.2 100 0.0 SW 7 11 4 6 1006.2 1006.2 0.0
01/06:00pm 12.2 11.6 12.2 100 0.0 W 7 9 4 5 1006.0 1006.0 0.0
01/05:30pm 12.5 10.8 12.5 100 0.0 W 13 17 7 9 1005.6 1005.6 0.0
01/05:00pm 12.5 10.8 12.5 100 0.0 WNW 13 15 7 8 1005.0 1005.0 0.0
01/04:30pm 12.4 9.0 12.4 100 0.0 NW 22 28 12 15 1004.7 1004.7 0.0
01/04:00pm 12.6 10.2 12.6 100 0.0 NW 17 20 9 11 1004.6 1004.6 0.0
01/03:30pm 12.9 9.3 12.9 100 0.0 WNW 24 30 13 16 1004.5 1004.5 0.0
01/03:00pm 13.6 9.4 13.6 100 0.0 WNW 28 32 15 17 1004.2 1004.2 0.0
01/02:30pm 13.6 10.2 13.6 100 0.0 NW 24 30 13 16 1003.7 1003.7 0.0
01/02:00pm 13.1 8.8 13.1 100 0.0 N 28 32 15 17 1003.5 1003.5 0.0
01/01:30pm 12.8 8.4 12.8 100 0.0 N 28 33 15 18 1003.2 1003.2 0.0
01/01:00pm 13.0 7.7 13.0 100 0.0 N 33 39 18 21 1003.0 1003.0 0.0
01/12:30pm 13.5 9.3 13.5 100 0.0 N 28 32 15 17 1002.9 1002.9 0.0
01/12:00pm 13.1 8.0 13.1 100 0.0 N 32 35 17 19 1002.9 1002.9 0.0
01/11:30am 13.2 11.0 13.2 100 0.0 N 17 22 9 12 1003.2 1003.2 0.0
01/11:00am 12.2 10.0 12.2 100 0.0 NNW 15 19 8 10 1003.3 1003.3 0.0
01/10:30am 12.5 7.2 12.5 100 0.0 N 32 41 17 22 1003.0 1003.0 0.0
01/10:00am 13.5 9.3 13.5 100 0.0 N 28 32 15 17 1002.8 1002.8 0.0
01/09:30am 13.3 9.4 13.3 100 0.0 N 26 32 14 17 1002.7 1002.7 0.0
01/09:00am 13.0 9.0 13.0 100 0.0 N 26 30 14 16 1002.5 1002.5 2.2
01/08:30am 12.7 7.3 12.7 100 0.0 N 33 41 18 22 1002.4 1002.4 2.2
01/08:00am 12.9 7.5 12.9 100 0.0 N 33 39 18 21 1002.1 1002.1 2.2
01/07:30am 13.1 8.4 13.1 100 0.0 N 30 35 16 19 1001.9 1001.9 2.2
01/07:00am 13.3 8.2 13.1 99 0.1 N 32 37 17 20 1001.8 1001.8 2.2
01/06:30am 13.0 7.3 13.0 100 0.0 N 35 43 19 23 1001.6 1001.6 2.2
01/06:00am 13.2 8.1 13.0 99 0.1 N 32 37 17 20 1001.6 1001.6 2.0
01/05:30am 13.2 8.8 12.9 98 0.2 NNW 28 33 15 18 1001.6 1001.6 1.6
01/05:00am 13.2 7.5 12.9 98 0.2 NNW 35 41 19 22 1001.6 1001.6 1.6
01/04:30am 13.0 7.8 12.8 99 0.1 NNW 32 35 17 19 1001.7 1001.7 1.6
01/04:00am 12.9 7.5 12.7 99 0.1 NNW 33 41 18 22 1001.8 1001.8 1.6
01/03:30am 12.8 7.0 12.6 99 0.1 NNW 35 43 19 23 1002.1 1002.1 1.6
01/03:00am 12.3 7.3 12.3 100 0.0 NNW 30 41 16 22 1002.3 1002.3 1.4
01/02:49am 11.7 7.3 11.7 100 0.0 NNW 26 50 14 27 1002.7 1002.7 1.4
01/02:30am 11.4 8.2 11.4 100 0.0 NNW 19 26 10 14 1002.9 1002.9 1.2
01/02:09am 13.4 8.2 12.9 97 0.3 NNW 32 50 17 27 1003.0 1003.0 0.2
01/02:00am 13.2 7.9 12.6 96 0.3 NNW 32 37 17 20 1003.0 1003.0 0.2
01/01:30am 13.2 8.3 12.6 96 0.3 NNW 30 39 16 21 1003.2 1003.2 0.2
01/01:00am 13.2 8.1 13.0 99 0.1 NNW 32 39 17 21 1003.4 1003.4 0.2
01/12:30am 12.8 8.3 12.6 99 0.1 N 28 33 15 18 1003.8 1003.8 0.2
01/12:00am 13.0 9.7 12.8 99 0.1 NNW 22 26 12 14 1004.3 1004.3 0.2
 
Date/Time
EST
Temp
°C
App
Temp
°C
Dew
Point
°C
Rel
Hum
%
Delta-T
°C
Wind Press
QNH
hPa
Press
MSL
hPa
Rain since
9am
mm
Dir  Spd
km/h
Gust
km/h
Spd
kts
Gust
kts
31/11:30pm 12.9 8.8 12.7 99 0.1 NNW 26 30 14 16 1004.8 1004.8 0.2
31/11:00pm 12.9 8.3 12.3 96 0.3 NW 28 32 15 17 1005.2 1005.2 0.2
31/10:30pm 13.0 8.4 12.2 95 0.4 NW 28 33 15 18 1005.6 1005.6 0.2
31/10:00pm 12.9 7.5 12.3 96 0.3 NW 32 37 17 20 1005.8 1005.8 0.2
31/09:30pm 12.8 7.4 12.3 97 0.3 NW 32 37 17 20 1006.3 1006.3 0.2
31/09:00pm 12.2 9.2 12.0 99 0.1 WNW 19 24 10 13 1006.6 1006.6 0.2
31/08:30pm 12.4 9.0 12.4 100 0.0 W 22 26 12 14 1006.8 1006.8 0.2
31/08:00pm 12.9 8.0 12.7 99 0.1 NW 30 35 16 19 1006.8 1006.8 0.2
31/07:30pm 12.6 8.4 12.4 99 0.1 NW 26 32 14 17 1006.9 1006.9 0.2
31/07:00pm 12.5 7.1 12.3 99 0.1 NNW 32 37 17 20 1007.2 1007.2 0.2
31/06:30pm 12.6 7.3 12.4 99 0.1 NW 32 37 17 20 1007.3 1007.3 0.2
31/06:00pm 12.4 6.4 12.1 98 0.2 NW 35 39 19 21 1007.2 1007.2 0.2
31/05:30pm 12.4 5.6 11.8 96 0.3 NW 39 48 21 26 1007.2 1007.2 0.2
31/05:00pm 12.8 7.0 12.6 99 0.1 NW 35 41 19 22 1007.0 1007.0 0.2
31/04:30pm 12.9 7.1 12.7 99 0.1 NW 35 41 19 22 1007.1 1007.1 0.2
31/04:00pm 12.9 7.7 12.7 99 0.1 NW 32 37 17 20 1007.1 1007.1 0.2
31/03:30pm 12.8 8.3 12.6 99 0.1 NW 28 32 15 17 1007.2 1007.2 0.2
31/03:00pm 12.5 8.3 12.3 99 0.1 NW 26 33 14 18 1007.2 1007.2 0.2
31/02:30pm 12.6 7.3 12.6 100 0.0 WNW 32 37 17 20 1007.3 1007.3 0.2
31/02:17pm 12.9 7.7 12.7 99 0.1 NW 32 44 17 24 1007.3 1007.3 0.0
31/02:00pm 14.2 10.9 14.0 99 0.1 NW 24 28 13 15 1007.1 1007.1 0.0
31/01:30pm 13.3 8.6 13.1 99 0.1 NNW 30 33 16 18 1007.5 1007.5 0.0
31/01:00pm 12.8 7.6 12.8 100 0.0 NNW 32 33 17 18 1007.6 1007.6 0.0
31/12:30pm 13.7 9.5 13.5 99 0.1 NW 28 32 15 17 1008.1 1008.1 0.0
31/12:00pm 13.0 7.8 12.8 99 0.1 NNW 32 35 17 19 1008.5 1008.5 0.0
31/11:30am 14.0 9.8 13.5 97 0.3 NW 28 32 15 17 1008.8 1008.8 0.0
31/11:00am 14.0 9.2 12.9 93 0.6 NW 30 35 16 19 1009.2 1009.2 0.0
31/10:30am 13.9 9.9 13.1 95 0.4 NW 26 30 14 16 1009.4 1009.4 0.0
31/10:00am 14.1 9.9 13.5 96 0.3 NW 28 33 15 18 1009.5 1009.5 0.0
31/09:30am 13.8 9.6 13.6 99 0.1 WNW 28 35 15 19 1009.4 1009.4 0.0
31/09:00am 13.1 7.9 12.9 99 0.1 WNW 32 37 17 20 1009.2 1009.2 1.0
31/08:30am 12.7 7.2 12.5 99 0.1 WNW 33 39 18 21 1008.8 1008.8 1.0
31/08:00am 12.6 6.8 12.6 100 0.0 WNW 35 43 19 23 1008.6 1008.6 1.0
31/07:30am 12.8 6.3 12.8 100 0.0 WNW 39 44 21 24 1008.3 1008.3 1.0
31/07:00am 12.9 7.2 12.9 100 0.0 WNW 35 43 19 23 1008.2 1008.2 1.0
31/06:30am 13.1 5.9 13.1 100 0.0 WNW 43 48 23 26 1007.8 1007.8 1.0
31/06:00am 13.1 5.3 13.1 100 0.0 NW 46 57 25 31 1007.4 1007.4 1.0
31/05:30am 13.7 5.0 13.7 100 0.0 NW 52 65 28 35 1006.9 1006.9 0.8
31/05:00am 13.8 5.5 13.8 100 0.0 NW 50 59 27 32 1007.1 1007.1 0.8
31/04:30am 13.9 5.6 13.9 100 0.0 NW 50 63 27 34 1007.0 1007.0 0.8
31/04:00am 13.8 4.4 13.8 100 0.0 NW 56 70 30 38 1006.8 1006.8 0.8
31/03:30am 14.6 3.5 13.8 95 0.4 NNW 65 76 35 41 1006.5 1006.5 0.6
31/03:10am 14.8 6.8 14.6 99 0.1 NNW 50 69 27 37 1006.6 1006.6 0.6
31/03:00am 14.9 5.7 14.4 97 0.3 NNW 56 67 30 36 1006.6 1006.6 0.6
31/02:30am 14.5 5.0 14.3 99 0.1 NNW 57 80 31 43 1007.4 1007.4 0.6
31/02:20am 14.4 6.2 14.2 99 0.1 N 50 69 27 37 1007.4 1007.4 0.4
31/02:00am 14.7 6.6 14.5 99 0.1 NNW 50 63 27 34 1007.9 1007.9 0.2
31/01:50am 15.0 7.4 14.8 99 0.1 N 48 69 26 37 1008.0 1008.0 0.2
31/01:30am 15.1 8.5 14.9 99 0.1 N 43 48 23 26 1007.9 1007.9 0.2
31/01:00am 14.9 8.2 14.7 99 0.1 N 43 48 23 26 1008.1 1008.1 0.2
31/12:30am 14.9 8.2 14.7 99 0.1 N 43 50 23 27 1008.7 1008.7 0.2
31/12:00am 14.5 8.9 14.5 100 0.0 NNE 37 43 20 23 1009.2 1009.2 0.2
 
Date/Time
EST
Temp
°C
App
Temp
°C
Dew
Point
°C
Rel
Hum
%
Delta-T
°C
Wind Press
QNH
hPa
Press
MSL
hPa
Rain since
9am
mm
Dir  Spd
km/h
Gust
km/h
Spd
kts
Gust
kts
30/11:30pm 14.5 8.9 14.5 100 0.0 NNE 37 43 20 23 1009.7 1009.7 0.2
30/11:00pm 14.5 8.5 14.5 100 0.0 NNE 39 44 21 24 1010.3 1010.3 0.2
30/10:30pm 14.3 8.6 14.3 100 0.0 NNE 37 44 20 24 1010.8 1010.8 0.2
30/10:00pm 14.2 8.5 14.2 100 0.0 NNE 37 43 20 23 1011.4 1011.4 0.2
30/09:30pm 14.3 8.3 14.3 100 0.0 NNE 39 44 21 24 1011.7 1011.7 0.2
30/09:00pm 14.2 8.5 14.2 100 0.0 NNE 37 44 20 24 1011.9 1011.9 0.2
30/08:30pm 13.8 8.4 13.8 100 0.0 NE 35 41 19 22 1012.0 1012.0 0.2
30/08:00pm 13.9 7.4 13.9 100 0.0 NNE 41 46 22 25 1012.1 1012.1 0.2
30/07:30pm 13.9 7.4 13.9 100 0.0 NNE 41 48 22 26 1012.2 1012.2 0.2
30/07:00pm 14.0 8.2 13.8 99 0.1 NNE 37 44 20 24 1012.5 1012.5 0.2
30/06:30pm 14.2 8.2 13.4 95 0.4 NNE 37 46 20 25 1012.8 1012.8 0.2
30/06:00pm 14.3 8.5 14.0 98 0.2 NNE 37 44 20 24 1013.3 1013.3 0.2
30/05:30pm 14.4 8.6 13.8 96 0.3 NNE 37 43 20 23 1013.9 1013.9 0.2
30/05:00pm 14.6 9.3 14.1 97 0.3 N 35 41 19 22 1014.2 1014.2 0.2
30/04:30pm 14.7 8.9 13.9 95 0.4 N 37 44 20 24 1014.8 1014.8 0.2
30/04:00pm 14.7 8.9 13.9 95 0.4 N 37 44 20 24 1014.9 1014.9 0.2
30/03:30pm 15.0 8.9 14.2 95 0.5 N 39 46 21 25 1015.3 1015.3 0.2
30/03:00pm 15.1 9.5 14.5 96 0.3 N 37 43 20 23 1015.8 1015.8 0.2
30/02:30pm 15.0 9.8 14.4 96 0.3 N 35 41 19 22 1016.2 1016.2 0.2
30/02:00pm 15.4 9.9 14.6 95 0.5 N 37 44 20 24 1016.8 1016.8 0.2
30/01:30pm 15.4 8.6 14.3 93 0.6 N 43 50 23 27 1017.2 1017.2 0.2
30/01:00pm 15.4 9.1 14.6 95 0.5 N 41 48 22 26 1017.6 1017.6 0.2
30/12:30pm 15.2 8.9 14.6 96 0.3 N 41 48 22 26 1018.2 1018.2 0.0
30/12:00pm 15.3 8.6 14.5 95 0.5 N 43 50 23 27 1019.0 1019.0 0.0
30/11:30am 15.5 8.9 14.9 96 0.3 N 43 54 23 29 1019.6 1019.6 0.0
30/11:00am 15.3 8.8 15.1 99 0.1 N 43 50 23 27 1020.2 1020.2 0.0
30/10:30am 15.1 8.5 14.9 99 0.1 NNW 43 50 23 27 1020.6 1020.6 0.0
30/10:00am 15.1 8.5 14.9 99 0.1 NNW 43 50 23 27 1021.0 1021.0 0.0
30/09:30am 14.8 8.9 14.8 100 0.0 NNW 39 48 21 26 1021.3 1021.3 0.0
30/09:00am 14.4 8.8 14.4 100 0.0 NNW 37 46 20 25 1021.3 1021.3 0.0
30/08:30am 14.4 9.2 14.4 100 0.0 NNW 35 43 19 23 1021.4 1021.4 0.0
30/08:00am 14.3 9.0 14.3 100 0.0 NNW 35 46 19 25 1021.3 1021.3 0.0
30/07:30am 14.4 8.8 14.4 100 0.0 NNW 37 44 20 24 1021.3 1021.3 0.0
30/07:00am 14.4 9.2 14.4 100 0.0 NNW 35 41 19 22 1021.2 1021.2 0.0
30/06:30am 14.5 9.3 14.5 100 0.0 NNW 35 43 19 23 1021.2 1021.2 0.0
30/06:00am 14.5 9.7 14.5 100 0.0 NNW 33 43 18 23 1021.1 1021.1 0.0
30/05:30am 14.4 9.5 14.4 100 0.0 NNW 33 41 18 22 1021.1 1021.1 0.0
30/05:00am 14.4 8.8 14.4 100 0.0 NNW 37 43 20 23 1021.1 1021.1 0.0
30/04:30am 14.4 9.7 14.4 100 0.0 NNW 32 37 17 20 1021.0 1021.0 0.0
30/04:00am 14.3 9.6 14.3 100 0.0 NNW 32 39 17 21 1021.0 1021.0 0.0
30/03:30am 14.3 10.7 14.3 100 0.0 NNW 26 33 14 18 1021.1 1021.1 0.0
30/03:00am 14.2 10.2 14.2 100 0.0 NNW 28 32 15 17 1021.3 1021.3 0.0
30/02:30am 14.3 10.4 14.3 100 0.0 N 28 32 15 17 1021.5 1021.5 0.0
30/02:00am 14.2 10.6 14.2 100 0.0 N 26 32 14 17 1021.7 1021.7 0.0
30/01:30am 14.3 11.1 14.3 100 0.0 N 24 30 13 16 1022.0 1022.0 0.0
30/01:00am 14.3 10.7 14.3 100 0.0 NNW 26 32 14 17 1022.3 1022.3 0.0
30/12:30am 14.2 10.2 14.2 100 0.0 N 28 33 15 18 1022.6 1022.6 0.0
30/12:00am 14.1 10.5 14.1 100 0.0 NNW 26 32 14 17 1022.7 1022.7 0.0
 
Date/Time
EST
Temp
°C
App
Temp
°C
Dew
Point
°C
Rel
Hum
%
Delta-T
°C
Wind Press
QNH
hPa
Press
MSL
hPa
Rain since
9am
mm
Dir  Spd
km/h
Gust
km/h
Spd
kts
Gust
kts
29/11:30pm 14.1 10.8 14.1 100 0.0 NNW 24 30 13 16 1022.9 1022.9 0.0
29/11:00pm 13.8 10.8 13.8 100 0.0 NNW 22 24 12 13 1022.9 1022.9 0.0
29/10:30pm 13.6 10.2 13.6 100 0.0 NW 24 30 13 16 1023.1 1023.1 0.0
29/10:00pm 13.5 9.3 13.5 100 0.0 NW 28 33 15 18 1023.4 1023.4 0.0
29/09:30pm 13.4 8.8 13.4 100 0.0 NW 30 37 16 20 1023.5 1023.5 0.0
29/09:00pm 13.6 8.7 13.6 100 0.0 NW 32 39 17 21 1023.5 1023.5 0.0
29/08:30pm 13.7 9.2 13.7 100 0.0 NW 30 35 16 19 1023.4 1023.4 0.0
29/08:00pm 13.7 8.8 13.7 100 0.0 NW 32 35 17 19 1023.2 1023.2 0.0
29/07:30pm 13.7 9.2 13.7 100 0.0 NW 30 33 16 18 1023.2 1023.2 0.0

Other formats

Comma delimited format used in spreadsheet applications
http://www.bom.gov.au/fwo/IDT60801/IDT60801.95964.axf

JavaScript Object Notation format (JSON) in row-major order
http://www.bom.gov.au/fwo/IDT60801/IDT60801.95964.json

Data quality

Most of these data are generated automatically and are frequently updated. Quality checks on data are not normally performed. It is possible for incorrect values to appear. Refer to information at About Latest Weather Observations and please check the disclaimer before using these data.